Gilze-Rijen, Netherlands

12:44 PM CET on December 05, 2016 (GMT +0100)
Gilze-Rijen Air Base | | Change Station

Elev 43 ft 51.56 °N, 4.94 °E | Updated 19 minutes ago

Clear
Clear
39 °F
Feels Like 37 °F
N
4
Wind Variable Wind from ESE

Today
High -- | Low -- °F
--% Chance of Precip.
Yesterday
High -- | Low -- °F
Precip. -- in
Pressure 30.30 in
Visibility 6.2 miles
Clouds
Windchill 37 °F
Dew Point 28 °F
Humidity 65%
Rainfall 0.00 in
Snow Depth Not available.
8:29 AM 4:32 PM
Waxing Crescent, 31% visible
METAR EHGR 051125Z AUTO 12003KT 090V160 9999 NCD 04/M02 Q1026 BLU 15003KT CAVOK
Pressure 30.30 in
Visibility 6.2 miles
Clouds
Windchill 37 °F
Dew Point 28 °F
Humidity 65%
Rainfall 0.00 in
Snow Depth Not available.
8:29 AM 4:32 PM
Waxing Crescent, 31% visible
METAR EHGR 051125Z AUTO 12003KT 090V160 9999 NCD 04/M02 Q1026 BLU 15003KT CAVOK

10-Day Weather Forecast

×

Almanac

Astronomy

Dec. 05, 2016 Rise Set
Actual Time
Civil Twilight
Nautical Twilight
Astronomical Twilight
Moon
Length of Visible Light
Length of Day
Tomorrow will be .
, % of the Moon is Illuminated

Today's Extremes

Country Highs Country Lows

Community

WunderPhotos

Upload Photos

1,955,777 photos uploaded!

WunderBlog® & News

Nearby

Air Quality

  Air Quality AQ Index Pollutant
Not available.

Snow Depth

Station Depth Elevation

Earthquake Activity

City Distance Mag. Time & Date
Minimum magnitude displayed is 2.5.

Coastal Water Temperatures

Place Temperature

Stations

Nearby Weather Stations

Station Location Temp. Windchill Dew Point Humidity Wind Precip. Elev Updated Type